Time;durP1;ratioP1;P1;durP2;ratioP2;P2;SDS_P1;SDS_P2;PMS_P1;PMS_P2;Temp;Humidity;BMP_temperature;BMP_pressure;BME280_temperature;BME280_humidity;BME280_pressure;Samples;Min_cycle;Max_cycle;Signal;HPM_P1;HPM_P2
2023/03/27 00:00:46;;;;;;;9.88;1.13;;;8.20;90.20;;;;;;4788755;30;20122;-81
2023/03/27 00:03:13;;;;;;;9.00;1.10;;;8.20;90.10;;;;;;4787642;30;20042;-81
2023/03/27 00:05:40;;;;;;;6.70;0.50;;;8.20;90.20;;;;;;4788397;30;20125;-80
2023/03/27 00:08:10;;;;;;;9.77;0.90;;;8.20;90.10;;;;;;4772221;30;20037;-82
2023/03/27 00:10:36;;;;;;;7.68;0.60;;;8.20;90.10;;;;;;4788469;30;20039;-82
2023/03/27 00:13:03;;;;;;;6.43;0.52;;;8.20;90.10;;;;;;4788115;30;20054;-81
2023/03/27 00:15:30;;;;;;;6.50;0.70;;;8.20;90.10;;;;;;4788369;30;20031;-81
2023/03/27 00:17:57;;;;;;;10.50;0.68;;;8.20;90.20;;;;;;4786601;30;20035;-82
2023/03/27 00:20:25;;;;;;;8.52;0.88;;;8.20;90.20;;;;;;4787393;30;20054;-81
2023/03/27 00:22:59;;;;;;;11.25;0.73;;;8.10;90.10;;;;;;4786838;30;20092;-81
2023/03/27 00:25:27;;;;;;;7.25;0.63;;;8.00;90.20;;;;;;4772545;30;20063;-81
2023/03/27 00:27:57;;;;;;;5.30;0.40;;;8.00;90.40;;;;;;4787012;30;20088;-80
2023/03/27 00:30:28;;;;;;;7.90;0.80;;;8.00;90.40;;;;;;4788441;30;20027;-81
2023/03/27 00:32:55;;;;;;;9.38;0.50;;;8.00;90.40;;;;;;4787479;30;20365;-82
2023/03/27 00:35:22;;;;;;;7.22;0.52;;;8.00;90.50;;;;;;4787417;30;20035;-81
2023/03/27 00:37:47;;;;;;;6.07;0.60;;;7.90;90.50;;;;;;4786861;30;20039;-81
2023/03/27 00:40:14;;;;;;;9.35;0.80;;;7.90;90.60;;;;;;4772326;30;20187;-82
2023/03/27 00:42:41;;;;;;;10.95;1.00;;;7.80;90.60;;;;;;4772144;30;20059;-81
2023/03/27 00:45:20;;;;;;;8.57;0.85;;;7.60;90.80;;;;;;4787779;30;20035;-81
2023/03/27 00:47:53;;;;;;;8.23;1.17;;;7.60;91.20;;;;;;4786803;30;20107;-81
2023/03/27 00:50:23;;;;;;;5.03;0.50;;;7.50;91.30;;;;;;4787336;30;20480;-81
2023/03/27 00:52:55;;;;;;;6.43;0.95;;;7.50;91.50;;;;;;4786825;30;20544;-80
2023/03/27 00:55:21;;;;;;;6.35;0.60;;;7.50;91.60;;;;;;4786703;30;20039;-80
2023/03/27 00:57:53;;;;;;;16.50;1.00;;;7.60;91.60;;;;;;4772454;30;20040;-82
2023/03/27 01:00:19;;;;;;;5.50;0.40;;;7.60;91.70;;;;;;4787608;30;20057;-81
2023/03/27 01:02:48;;;;;;;8.00;0.50;;;7.60;91.80;;;;;;4772634;30;20449;-81
2023/03/27 01:05:14;;;;;;;9.10;1.05;;;7.60;91.90;;;;;;4787798;30;20031;-82
2023/03/27 01:07:42;;;;;;;4.13;0.60;;;7.60;91.90;;;;;;4787679;30;20124;-80
2023/03/27 01:10:09;;;;;;;9.10;1.67;;;7.60;92.00;;;;;;4786367;30;20040;-81
2023/03/27 01:12:51;;;;;;;6.97;0.50;;;7.70;91.90;;;;;;4772081;30;20473;-80
2023/03/27 01:15:23;;;;;;;9.07;0.73;;;7.70;91.90;;;;;;4787990;30;20039;-80
2023/03/27 01:18:13;;;;;;;10.95;0.70;;;7.70;91.80;;;;;;4787983;30;20032;-81
2023/03/27 01:20:41;;;;;;;8.80;0.90;;;7.80;91.90;;;;;;4787744;30;20130;-81
2023/03/27 01:23:26;;;;;;;9.05;0.55;;;7.80;91.80;;;;;;4771315;30;20137;-81
2023/03/27 01:26:13;;;;;;;10.43;0.55;;;7.80;91.80;;;;;;4771523;30;20062;-82
2023/03/27 01:29:00;;;;;;;7.43;0.63;;;7.80;91.80;;;;;;4786771;30;20067;-81
2023/03/27 01:32:12;;;;;;;10.98;0.68;;;7.80;92.00;;;;;;4787615;30;20468;-81
2023/03/27 01:35:34;;;;;;;5.30;0.57;;;7.80;91.90;;;;;;4787700;30;20076;-82
2023/03/27 01:38:11;;;;;;;11.23;1.02;;;7.80;92.00;;;;;;4754203;30;20044;-82
2023/03/27 01:40:37;;;;;;;8.90;2.00;;;7.80;91.90;;;;;;4771597;30;20096;-81
2023/03/27 01:43:18;;;;;;;5.53;0.65;;;7.80;91.90;;;;;;4771946;30;20376;-82
2023/03/27 01:45:46;;;;;;;10.05;0.88;;;7.80;91.90;;;;;;4786535;30;20042;-81
2023/03/27 01:48:38;;;;;;;6.88;0.80;;;7.80;91.80;;;;;;4786416;30;20035;-82
2023/03/27 01:51:15;;;;;;;8.52;1.40;;;7.80;91.90;;;;;;4787778;30;20036;-81
2023/03/27 01:53:48;;;;;;;7.40;0.70;;;7.80;91.80;;;;;;4787034;30;20474;-81
2023/03/27 01:56:17;;;;;;;;;;;7.70;91.80;;;;;;4787135;30;20035;-81
2023/03/27 01:58:46;;;;;;;13.57;1.15;;;7.80;91.80;;;;;;4786269;29;19910;-81
2023/03/27 02:01:21;;;;;;;9.40;0.77;;;7.70;91.90;;;;;;4789563;30;20039;-81
2023/03/27 02:03:53;;;;;;;11.55;1.02;;;7.60;91.90;;;;;;4790318;30;20380;-80
2023/03/27 02:06:33;;;;;;;6.07;0.70;;;7.50;92.10;;;;;;4789245;30;20057;-82
2023/03/27 02:09:22;;;;;;;9.80;1.02;;;7.40;92.20;;;;;;4791075;30;20048;-81
2023/03/27 02:12:30;;;;;;;10.43;0.55;;;7.30;92.40;;;;;;4790195;30;20145;-81
2023/03/27 02:15:07;;;;;;;11.18;0.95;;;7.30;92.90;;;;;;4784667;30;20487;-81
2023/03/27 02:17:37;;;;;;;4.07;0.60;;;7.30;93.40;;;;;;4789919;30;20462;-81
2023/03/27 02:20:15;;;;;;;7.32;0.88;;;7.10;93.90;;;;;;4790683;29;20107;-80
2023/03/27 02:22:42;;;;;;;8.23;0.60;;;6.90;94.30;;;;;;4789034;30;20088;-81
2023/03/27 02:25:31;;;;;;;9.57;0.80;;;6.90;94.60;;;;;;4774742;30;20122;-81
2023/03/27 02:28:36;;;;;;;6.47;0.63;;;6.80;95.00;;;;;;4790555;30;20035;-82
2023/03/27 02:31:11;;;;;;;6.68;0.70;;;6.80;95.30;;;;;;4774826;30;20461;-82
2023/03/27 02:33:55;;;;;;;5.28;0.40;;;6.80;95.70;;;;;;4790593;30;20176;-81
2023/03/27 02:36:29;;;;;;;8.02;0.60;;;6.90;95.50;;;;;;4789468;30;20035;-82
2023/03/27 02:39:04;;;;;;;5.05;0.47;;;6.90;95.50;;;;;;4790282;30;20035;-82
2023/03/27 02:41:37;;;;;;;5.07;0.60;;;6.80;95.50;;;;;;4790195;30;20095;-82
2023/03/27 02:44:22;;;;;;;4.88;0.50;;;6.90;95.60;;;;;;4790601;30;20039;-81
2023/03/27 02:47:02;;;;;;;3.63;0.45;;;6.90;95.70;;;;;;4788923;30;20058;-82
2023/03/27 02:49:36;;;;;;;5.53;0.43;;;6.90;95.90;;;;;;4774481;30;20107;-82
2023/03/27 02:52:25;;;;;;;3.88;0.40;;;6.80;96.30;;;;;;4789289;30;20046;-81
2023/03/27 02:55:13;;;;;;;6.28;0.40;;;6.80;96.50;;;;;;4788784;30;20043;-80
2023/03/27 02:57:38;;;;;;;8.65;0.70;;;6.80;96.60;;;;;;4789276;30;20081;-81
2023/03/27 03:00:24;;;;;;;5.35;0.30;;;6.70;96.70;;;;;;4774187;30;20473;-81
2023/03/27 03:03:01;;;;;;;6.80;0.50;;;6.80;96.90;;;;;;4776522;30;20500;-81
2023/03/27 03:05:27;;;;;;;5.43;0.82;;;6.80;96.90;;;;;;4789258;30;20027;-81
2023/03/27 03:07:53;;;;;;;2.55;0.38;;;6.80;97.00;;;;;;4788656;30;20032;-81
2023/03/27 03:10:20;;;;;;;4.07;0.32;;;6.90;97.00;;;;;;4787951;29;20104;-82
2023/03/27 03:12:45;;;;;;;5.25;0.60;;;7.00;97.00;;;;;;4787953;30;20159;-82
2023/03/27 03:15:11;;;;;;;6.13;0.30;;;7.00;96.90;;;;;;4773559;30;20482;-80
2023/03/27 03:17:37;;;;;;;3.05;0.40;;;7.10;96.80;;;;;;4773502;30;20042;-81
2023/03/27 03:20:08;;;;;;;6.13;0.35;;;7.10;96.80;;;;;;4773505;30;20125;-81
2023/03/27 03:22:35;;;;;;;7.47;0.50;;;7.10;96.70;;;;;;4789709;30;20031;-81
2023/03/27 03:25:01;;;;;;;3.25;0.30;;;7.10;96.60;;;;;;4773927;30;20035;-82
2023/03/27 03:27:27;;;;;;;5.45;0.43;;;7.10;96.60;;;;;;4788269;30;20108;-82
2023/03/27 03:29:55;;;;;;;6.50;0.43;;;7.20;96.70;;;;;;4773968;30;20043;-82
2023/03/27 03:32:21;;;;;;;4.88;0.30;;;7.20;96.60;;;;;;4774261;30;20171;-82
2023/03/27 03:34:47;;;;;;;5.93;0.40;;;7.20;96.50;;;;;;4773428;30;20413;-82
2023/03/27 03:37:13;;;;;;;4.60;0.40;;;7.10;96.80;;;;;;4773193;30;20035;-82
2023/03/27 03:39:38;;;;;;;3.10;0.30;;;7.10;96.50;;;;;;4788128;30;20122;-83
2023/03/27 03:42:04;;;;;;;6.55;0.40;;;7.00;96.40;;;;;;4789238;30;20113;-82
2023/03/27 03:44:30;;;;;;;4.22;0.80;;;6.90;96.40;;;;;;4773545;30;20082;-82
2023/03/27 03:46:56;;;;;;;3.35;0.25;;;6.80;96.50;;;;;;4773082;30;20047;-82
2023/03/27 03:49:21;;;;;;;3.00;0.30;;;6.80;96.80;;;;;;4788700;30;20515;-83
2023/03/27 03:51:47;;;;;;;2.85;0.77;;;6.70;96.90;;;;;;4773395;30;20489;-83
2023/03/27 03:54:13;;;;;;;2.30;0.20;;;6.70;97.00;;;;;;4773593;30;20054;-82
2023/03/27 03:56:41;;;;;;;3.78;0.22;;;6.60;97.40;;;;;;4759014;30;20043;-82
2023/03/27 03:59:08;;;;;;;1.88;0.20;;;6.60;97.60;;;;;;4773136;30;20088;-81
2023/03/27 04:01:34;;;;;;;1.63;0.30;;;6.50;97.80;;;;;;4773149;30;20035;-82
2023/03/27 04:03:59;;;;;;;3.65;0.20;;;6.50;98.10;;;;;;4772597;30;20130;-82
2023/03/27 04:06:25;;;;;;;6.43;0.28;;;6.40;98.70;;;;;;4772997;30;20418;-82
2023/03/27 04:08:51;;;;;;;2.88;0.25;;;6.20;99.20;;;;;;4757882;30;20035;-82
2023/03/27 04:11:18;;;;;;;3.17;0.28;;;6.00;99.90;;;;;;4788804;30;20023;-81
2023/03/27 04:13:43;;;;;;;1.98;0.20;;;6.00;99.90;;;;;;4757865;30;20485;-81
2023/03/27 04:16:09;;;;;;;2.95;0.30;;;5.70;99.90;;;;;;4787415;30;20032;-82
2023/03/27 04:18:38;;;;;;;2.08;0.30;;;5.70;99.90;;;;;;4773119;30;20047;-83
2023/03/27 04:21:04;;;;;;;0.77;0.10;;;5.80;99.90;;;;;;4787817;30;20043;-82
2023/03/27 04:23:32;;;;;;;3.17;0.20;;;5.80;99.90;;;;;;4788326;29;20035;-82
2023/03/27 04:25:59;;;;;;;1.02;0.20;;;5.90;99.90;;;;;;4773148;30;20318;-83
2023/03/27 04:28:33;;;;;;;2.33;0.30;;;5.90;99.90;;;;;;4772255;30;20035;-82
2023/03/27 04:30:59;;;;;;;0.55;0.10;;;6.10;99.90;;;;;;4773045;30;20039;-79
2023/03/27 04:33:25;;;;;;;1.35;0.10;;;6.20;99.90;;;;;;4772742;30;20070;-82
2023/03/27 04:35:51;;;;;;;1.30;0.10;;;6.20;99.90;;;;;;4772276;30;20039;-82
2023/03/27 04:38:18;;;;;;;1.27;0.15;;;6.30;99.90;;;;;;4772321;30;20036;-82
2023/03/27 04:40:48;;;;;;;4.25;0.30;;;6.40;99.90;;;;;;4788310;30;20051;-82
2023/03/27 04:43:15;;;;;;;1.55;0.20;;;6.50;99.90;;;;;;4787471;30;20168;-82
2023/03/27 04:45:47;;;;;;;3.92;0.15;;;6.60;99.90;;;;;;4772767;30;20035;-80
2023/03/27 04:48:13;;;;;;;2.97;0.10;;;6.60;99.90;;;;;;4787077;30;20038;-81
2023/03/27 04:50:42;;;;;;;1.35;0.20;;;6.70;99.90;;;;;;4786746;30;20042;-82
2023/03/27 04:53:08;;;;;;;4.03;0.20;;;6.70;99.90;;;;;;4787389;30;20055;-82
2023/03/27 04:55:36;;;;;;;1.83;0.10;;;6.70;99.90;;;;;;4774955;30;20430;-81
2023/03/27 04:58:03;;;;;;;2.40;0.10;;;6.70;99.90;;;;;;4784056;30;20035;-82
2023/03/27 05:00:29;;;;;;;0.77;0.10;;;6.70;99.80;;;;;;4782083;30;20092;-81
2023/03/27 05:02:55;;;;;;;3.65;0.20;;;6.80;99.70;;;;;;4787652;30;20031;-81
2023/03/27 05:05:21;;;;;;;6.78;0.22;;;6.80;99.90;;;;;;4772179;30;20027;-78
2023/03/27 05:07:48;;;;;;;2.55;0.30;;;7.00;99.90;;;;;;4757100;30;20043;-79
2023/03/27 05:10:16;;;;;;;1.98;0.20;;;7.10;99.90;;;;;;4772127;30;20028;-78
2023/03/27 05:12:50;;;;;;;5.60;0.20;;;7.20;99.90;;;;;;4786743;30;20046;-83
2023/03/27 05:15:17;;;;;;;2.75;0.47;;;7.30;99.90;;;;;;4786748;30;20039;-83
2023/03/27 05:17:44;;;;;;;2.33;0.20;;;7.50;99.90;;;;;;4788203;30;20054;-83
2023/03/27 05:20:13;;;;;;;3.95;0.15;;;7.60;99.90;;;;;;4771877;30;20039;-83
2023/03/27 05:22:42;;;;;;;3.45;0.20;;;7.70;99.90;;;;;;4787726;30;20035;-83
2023/03/27 05:25:09;;;;;;;3.53;0.20;;;7.70;99.90;;;;;;4786236;30;20040;-83
2023/03/27 05:27:35;;;;;;;3.10;0.20;;;7.80;99.90;;;;;;4787213;30;20353;-83
2023/03/27 05:30:01;;;;;;;4.25;0.20;;;7.80;99.90;;;;;;4788094;30;20118;-83
2023/03/27 05:32:26;;;;;;;2.78;0.40;;;7.70;99.90;;;;;;4771893;30;20130;-83
2023/03/27 05:34:55;;;;;;;1.27;0.30;;;7.50;99.90;;;;;;4773912;30;20044;-83
2023/03/27 05:37:21;;;;;;;3.85;0.30;;;7.40;99.90;;;;;;4775746;30;20427;-82
2023/03/27 05:39:47;;;;;;;1.48;0.10;;;7.40;99.90;;;;;;4790767;30;20088;-83
2023/03/27 05:42:14;;;;;;;1.00;0.20;;;7.50;99.90;;;;;;4792680;30;20055;-82
2023/03/27 05:44:42;;;;;;;3.00;0.40;;;7.50;99.90;;;;;;4775634;30;20469;-83
2023/03/27 05:47:09;;;;;;;2.22;0.10;;;7.50;99.90;;;;;;4775825;30;20070;-81
2023/03/27 05:49:35;;;;;;;2.15;0.20;;;7.50;99.90;;;;;;4790765;30;20035;-80
2023/03/27 05:52:02;;;;;;;3.15;0.70;;;7.40;99.90;;;;;;4774771;30;20050;-79
2023/03/27 05:54:28;;;;;;;2.95;0.30;;;7.50;99.90;;;;;;4774659;30;20035;-80
2023/03/27 05:56:54;;;;;;;3.15;0.20;;;7.50;99.90;;;;;;4789804;30;20046;-79
2023/03/27 05:59:20;;;;;;;3.10;0.25;;;7.30;99.90;;;;;;4774664;30;20031;-80
2023/03/27 06:01:47;;;;;;;1.35;0.20;;;7.20;99.90;;;;;;4775191;30;20027;-79
2023/03/27 06:04:14;;;;;;;2.13;0.28;;;7.20;99.90;;;;;;4791014;30;20362;-80
2023/03/27 06:06:40;;;;;;;1.25;0.25;;;7.20;99.90;;;;;;4774379;30;20040;-79
2023/03/27 06:09:06;;;;;;;2.55;0.45;;;7.10;99.90;;;;;;4790797;30;20472;-79
2023/03/27 06:11:32;;;;;;;6.53;0.40;;;7.10;99.90;;;;;;4790955;30;20032;-79
2023/03/27 06:13:58;;;;;;;2.15;0.22;;;7.00;99.90;;;;;;4789659;30;20047;-79
2023/03/27 06:16:24;;;;;;;1.50;0.20;;;7.00;99.90;;;;;;4774598;30;20498;-79
2023/03/27 06:18:50;;;;;;;3.53;0.30;;;7.00;99.90;;;;;;4789288;30;20052;-79
2023/03/27 06:21:16;;;;;;;2.33;0.43;;;7.00;99.90;;;;;;4789498;30;20031;-78
2023/03/27 06:23:42;;;;;;;3.28;0.57;;;7.00;99.90;;;;;;4774514;30;20051;-78
2023/03/27 06:26:08;;;;;;;2.03;0.40;;;7.00;99.90;;;;;;4790623;30;20039;-77
2023/03/27 06:28:34;;;;;;;2.25;0.60;;;7.00;99.90;;;;;;4774297;30;20046;-79
2023/03/27 06:31:00;;;;;;;2.50;0.47;;;7.10;99.90;;;;;;4789849;30;20303;-79
2023/03/27 06:33:26;;;;;;;3.53;0.50;;;7.20;99.90;;;;;;4774946;30;20134;-79
2023/03/27 06:35:54;;;;;;;4.35;1.70;;;7.20;99.90;;;;;;4773954;30;20537;-78
2023/03/27 06:38:20;;;;;;;3.50;0.60;;;7.20;99.90;;;;;;4774155;30;20473;-79
2023/03/27 06:40:46;;;;;;;3.75;0.60;;;7.20;99.90;;;;;;4773965;30;20063;-79
2023/03/27 06:43:12;;;;;;;3.78;0.47;;;7.20;99.90;;;;;;4789015;30;20123;-80
2023/03/27 06:45:47;;;;;;;3.45;0.60;;;7.20;99.90;;;;;;4773791;30;20537;-79
2023/03/27 06:48:15;;;;;;;2.20;0.40;;;7.20;99.90;;;;;;4789417;30;20054;-79
2023/03/27 06:50:42;;;;;;;4.85;0.50;;;7.10;99.90;;;;;;4790203;30;20122;-79
2023/03/27 06:53:09;;;;;;;4.07;0.93;;;7.20;99.90;;;;;;4789365;30;20035;-79
2023/03/27 06:55:35;;;;;;;2.20;0.30;;;7.20;99.90;;;;;;4790089;30;20047;-79
2023/03/27 06:58:02;;;;;;;3.08;0.50;;;7.20;99.90;;;;;;4791705;30;20061;-80
2023/03/27 07:00:33;;;;;;;2.63;0.60;;;7.20;99.90;;;;;;4792618;30;20138;-79
2023/03/27 07:03:01;;;;;;;5.05;0.70;;;7.10;99.90;;;;;;4789396;30;20044;-79
2023/03/27 07:05:29;;;;;;;8.93;1.02;;;7.00;99.90;;;;;;4790000;30;20050;-79
2023/03/27 07:07:55;;;;;;;4.85;0.50;;;7.00;99.90;;;;;;4789025;30;20035;-80
2023/03/27 07:10:23;;;;;;;5.68;1.02;;;7.00;99.90;;;;;;4773662;30;20142;-80
2023/03/27 07:12:51;;;;;;;4.28;0.85;;;7.00;99.90;;;;;;4773429;30;20092;-80
2023/03/27 07:15:18;;;;;;;2.97;0.77;;;7.00;99.90;;;;;;4789535;30;20531;-79
2023/03/27 07:17:51;;;;;;;6.95;0.90;;;7.00;99.90;;;;;;4758805;30;20031;-81
2023/03/27 07:20:17;;;;;;;8.07;0.88;;;7.10;99.90;;;;;;4788593;30;20092;-79
2023/03/27 07:22:42;;;;;;;4.80;0.88;;;7.20;99.90;;;;;;4773499;30;20054;-80
2023/03/27 07:25:11;;;;;;;6.10;0.73;;;7.30;99.90;;;;;;4788362;30;20122;-78
2023/03/27 07:27:37;;;;;;;8.20;0.90;;;7.50;99.90;;;;;;4789613;30;20524;-79
2023/03/27 07:30:06;;;;;;;6.38;0.93;;;7.50;99.90;;;;;;4773423;30;20039;-78
2023/03/27 07:32:33;;;;;;;6.78;1.08;;;7.70;99.80;;;;;;4788046;30;20039;-82
2023/03/27 07:34:59;;;;;;;8.85;1.73;;;7.70;99.60;;;;;;4773373;30;20040;-79
2023/03/27 07:37:26;;;;;;;8.18;1.27;;;7.70;99.30;;;;;;4773429;30;20088;-78
2023/03/27 07:39:51;;;;;;;7.28;0.95;;;7.70;99.20;;;;;;4789063;30;20031;-78
2023/03/27 07:42:18;;;;;;;7.03;0.98;;;7.90;99.30;;;;;;4770162;30;20454;-79
2023/03/27 07:44:44;;;;;;;7.03;0.90;;;8.00;99.00;;;;;;4770516;30;20036;-80
2023/03/27 07:47:09;;;;;;;4.50;0.77;;;7.90;98.40;;;;;;4771306;30;20363;-78
2023/03/27 07:49:36;;;;;;;5.40;0.80;;;7.90;98.40;;;;;;4769588;30;20036;-79
2023/03/27 07:52:01;;;;;;;5.43;0.85;;;7.90;98.60;;;;;;4785094;30;20040;-78
2023/03/27 07:54:28;;;;;;;13.00;1.40;;;8.10;98.80;;;;;;4770359;30;20266;-82
2023/03/27 07:56:54;;;;;;;7.32;1.05;;;8.20;98.40;;;;;;4769110;30;20036;-82
2023/03/27 07:59:20;;;;;;;6.18;0.90;;;8.30;97.70;;;;;;4769749;30;20038;-81
2023/03/27 08:01:49;;;;;;;8.02;1.13;;;8.40;97.80;;;;;;4770854;30;20032;-82
2023/03/27 08:04:16;;;;;;;9.25;1.02;;;8.50;97.70;;;;;;4770909;30;20126;-78
2023/03/27 08:06:42;;;;;;;6.25;1.05;;;8.50;97.70;;;;;;4785161;30;20116;-84
2023/03/27 08:09:09;;;;;;;4.80;0.75;;;8.60;97.60;;;;;;4755600;30;20130;-84
2023/03/27 08:11:37;;;;;;;6.15;0.77;;;8.80;97.70;;;;;;4755938;30;20036;-84
2023/03/27 08:14:03;;;;;;;7.43;0.90;;;8.80;97.70;;;;;;4786101;30;20051;-85
2023/03/27 08:16:29;;;;;;;5.38;0.60;;;8.80;96.70;;;;;;4773356;30;20036;-85
2023/03/27 08:18:56;;;;;;;7.40;1.10;;;8.80;96.70;;;;;;4771797;30;20039;-84
2023/03/27 08:21:22;;;;;;;6.25;0.60;;;8.90;96.70;;;;;;4771861;30;20497;-83
2023/03/27 08:23:48;;;;;;;8.50;1.08;;;9.10;96.90;;;;;;4770507;30;20043;-83
2023/03/27 08:26:14;;;;;;;13.82;1.23;;;9.10;96.10;;;;;;4769576;30;20422;-82
2023/03/27 08:28:40;;;;;;;8.57;0.80;;;9.00;96.30;;;;;;4770105;30;20492;-84
2023/03/27 08:31:14;;;;;;;7.85;0.65;;;9.00;96.40;;;;;;4771083;30;20111;-83
2023/03/27 08:33:41;;;;;;;6.22;0.60;;;9.00;96.70;;;;;;4769503;30;20031;-83
2023/03/27 08:36:08;;;;;;;5.97;0.55;;;9.10;96.50;;;;;;4771935;30;20117;-83
2023/03/27 08:38:34;;;;;;;4.53;1.10;;;9.30;96.40;;;;;;4769615;30;20115;-85
2023/03/27 08:41:02;;;;;;;7.35;0.55;;;9.50;95.60;;;;;;4775375;30;20051;-83
2023/03/27 08:43:38;;;;;;;5.88;0.60;;;9.60;96.10;;;;;;4788551;30;20085;-84
2023/03/27 08:46:20;;;;;;;5.57;0.57;;;9.60;96.20;;;;;;4772755;30;20373;-82
2023/03/27 08:49:04;;;;;;;6.65;0.60;;;9.70;94.40;;;;;;4787730;30;20385;-80
2023/03/27 08:51:30;;;;;;;5.72;0.30;;;9.40;94.60;;;;;;4788436;30;20050;-81
2023/03/27 08:53:57;;;;;;;3.38;0.20;;;9.00;94.70;;;;;;4789447;30;20035;-82
2023/03/27 08:56:24;;;;;;;1.77;0.15;;;8.80;95.70;;;;;;4773439;30;20122;-84
2023/03/27 08:58:51;;;;;;;0.95;0.10;;;8.50;96.10;;;;;;4772551;30;20057;-80
2023/03/27 09:01:16;;;;;;;2.17;0.45;;;8.40;96.50;;;;;;4772194;30;20031;-82
2023/03/27 09:03:53;;;;;;;2.15;0.32;;;8.30;96.70;;;;;;4788782;30;20035;-81
2023/03/27 09:06:18;;;;;;;1.75;0.20;;;8.30;97.30;;;;;;4786622;30;20500;-81
2023/03/27 09:09:18;;;;;;;1.92;0.10;;;8.40;97.80;;;;;;4788016;30;20027;-80
2023/03/27 09:12:14;;;;;;;2.97;0.20;;;8.50;97.50;;;;;;4786586;30;20028;-80
2023/03/27 09:15:03;;;;;;;1.45;0.20;;;8.60;97.70;;;;;;4787363;30;20035;-80
2023/03/27 09:17:37;;;;;;;2.08;0.20;;;8.80;98.30;;;;;;4787437;30;20074;-81
2023/03/27 09:20:18;;;;;;;2.08;0.10;;;8.90;97.60;;;;;;4787112;30;20063;-79
2023/03/27 09:22:51;;;;;;;2.78;0.10;;;9.00;97.00;;;;;;4786921;30;20430;-81
2023/03/27 09:25:27;;;;;;;;;;;9.10;96.80;;;;;;4787612;30;20031;-81
2023/03/27 09:27:53;;;;;;;2.13;0.20;;;9.20;97.10;;;;;;4787997;30;19991;-81
2023/03/27 09:30:28;;;;;;;2.42;0.20;;;9.50;97.10;;;;;;4772442;30;20434;-80
2023/03/27 09:33:05;;;;;;;1.42;0.10;;;9.70;96.80;;;;;;4787997;30;20035;-79
2023/03/27 09:35:33;;;;;;;1.98;0.22;;;10.00;96.80;;;;;;4786541;30;20043;-79
2023/03/27 09:38:02;;;;;;;3.40;0.30;;;10.30;96.30;;;;;;4786623;30;20043;-80
2023/03/27 09:40:43;;;;;;;1.95;0.30;;;10.40;95.30;;;;;;4787785;30;20040;-80
2023/03/27 09:43:16;;;;;;;4.82;0.30;;;10.50;95.10;;;;;;4786596;30;20035;-80
2023/03/27 09:45:43;;;;;;;2.80;0.30;;;10.70;93.80;;;;;;4788042;30;20027;-81
2023/03/27 09:48:29;;;;;;;4.78;0.50;;;10.80;92.20;;;;;;4787518;30;20036;-82
2023/03/27 09:50:55;;;;;;;6.47;0.22;;;10.50;90.70;;;;;;4786739;30;20545;-81
2023/03/27 09:53:22;;;;;;;6.35;0.65;;;10.40;91.20;;;;;;4771351;30;20204;-79
2023/03/27 09:56:01;;;;;;;4.78;0.35;;;10.40;91.60;;;;;;4786738;30;20050;-80
2023/03/27 09:58:26;;;;;;;6.10;0.30;;;10.40;91.50;;;;;;4786425;30;20031;-79
2023/03/27 10:01:20;;;;;;;3.92;0.43;;;10.40;91.50;;;;;;4771610;30;20080;-79
2023/03/27 10:03:50;;;;;;;3.22;0.30;;;10.60;90.20;;;;;;4786868;30;20050;-80
2023/03/27 10:06:29;;;;;;;3.85;0.28;;;10.60;89.50;;;;;;4787507;30;20035;-81
2023/03/27 10:08:59;;;;;;;1.05;0.10;;;10.30;90.50;;;;;;4771916;30;20059;-79
2023/03/27 10:11:30;;;;;;;3.60;0.35;;;9.50;89.40;;;;;;4788740;30;20031;-83
2023/03/27 10:13:58;;;;;;;1.65;0.20;;;9.10;91.10;;;;;;4790413;30;20042;-84
2023/03/27 10:16:26;;;;;;;3.72;0.25;;;9.10;92.00;;;;;;4788930;30;20035;-84
2023/03/27 10:18:56;;;;;;;2.25;0.20;;;9.00;92.80;;;;;;4773679;30;20047;-84
2023/03/27 10:21:41;;;;;;;1.95;0.20;;;9.00;93.00;;;;;;4790795;29;20055;-84
2023/03/27 10:24:32;;;;;;;3.55;0.10;;;9.00;93.60;;;;;;4778459;30;20047;-83
2023/03/27 10:27:00;;;;;;;1.50;0.10;;;9.30;94.00;;;;;;4790766;30;20053;-82
2023/03/27 10:29:30;;;;;;;2.13;0.10;;;9.50;93.10;;;;;;4797048;30;20062;-82
2023/03/27 10:31:59;;;;;;;1.92;0.73;;;9.70;93.20;;;;;;4795842;30;20031;-83
2023/03/27 10:34:31;;;;;;;2.70;0.30;;;9.90;92.90;;;;;;4790060;30;20423;-84
2023/03/27 10:37:00;;;;;;;3.27;0.40;;;10.00;92.70;;;;;;4790024;30;20039;-83
2023/03/27 10:39:28;;;;;;;3.08;0.30;;;10.20;92.30;;;;;;4791431;30;20033;-84
2023/03/27 10:41:54;;;;;;;4.97;0.20;;;10.40;91.40;;;;;;4790535;30;20133;-82
2023/03/27 10:44:24;;;;;;;5.72;0.40;;;10.50;90.60;;;;;;4777062;30;20078;-84
2023/03/27 10:46:52;;;;;;;6.53;0.40;;;10.50;88.60;;;;;;4796828;30;20036;-77
2023/03/27 10:49:43;;;;;;;5.60;0.25;;;10.60;88.20;;;;;;4798980;30;20197;-78
2023/03/27 10:52:32;;;;;;;6.15;1.33;;;10.70;86.40;;;;;;4799877;30;20496;-78
2023/03/27 10:55:11;;;;;;;4.32;0.32;;;10.70;85.30;;;;;;4797449;30;20127;-78
2023/03/27 10:57:38;;;;;;;2.15;0.35;;;10.70;84.40;;;;;;4794496;30;20031;-76
2023/03/27 11:00:19;;;;;;;2.53;0.30;;;10.90;85.30;;;;;;4793075;30;20039;-81
2023/03/27 11:02:50;;;;;;;4.72;0.30;;;11.20;86.10;;;;;;4778378;30;20035;-79
2023/03/27 11:05:22;;;;;;;2.70;0.20;;;11.30;81.90;;;;;;4791538;30;20031;-79
2023/03/27 11:08:01;;;;;;;6.72;0.65;;;11.50;80.90;;;;;;4790740;30;20145;-78
2023/03/27 11:10:39;;;;;;;4.25;0.20;;;11.60;78.00;;;;;;4791742;30;20028;-80
2023/03/27 11:13:18;;;;;;;2.50;0.40;;;11.60;78.30;;;;;;4791832;30;20393;-77
2023/03/27 11:15:52;;;;;;;4.05;0.40;;;11.50;76.20;;;;;;4790365;30;20036;-77
2023/03/27 11:18:31;;;;;;;2.58;0.40;;;11.40;77.80;;;;;;4788807;30;20062;-77
2023/03/27 11:21:07;;;;;;;3.25;0.35;;;11.50;77.50;;;;;;4790070;30;20043;-76
2023/03/27 11:23:52;;;;;;;4.72;0.40;;;11.50;77.10;;;;;;4788878;30;20031;-76
2023/03/27 11:26:21;;;;;;;3.13;0.38;;;11.30;77.80;;;;;;4789435;30;20039;-77
2023/03/27 11:28:57;;;;;;;3.03;0.20;;;11.20;78.80;;;;;;4788483;30;20353;-77
2023/03/27 11:31:22;;;;;;;7.25;0.30;;;11.20;76.40;;;;;;4788708;29;20114;-76
2023/03/27 11:34:04;;;;;;;2.65;0.28;;;11.10;76.10;;;;;;4789167;30;20117;-77
2023/03/27 11:36:53;;;;;;;3.00;0.30;;;11.10;75.40;;;;;;4789449;30;20039;-77
2023/03/27 11:39:40;;;;;;;4.05;0.30;;;11.10;75.90;;;;;;4788692;30;20034;-77
2023/03/27 11:42:13;;;;;;;4.30;0.30;;;11.00;77.00;;;;;;4788462;30;20087;-77
2023/03/27 11:44:39;;;;;;;3.35;0.40;;;11.00;76.70;;;;;;4789052;30;20065;-78
2023/03/27 11:47:32;;;;;;;3.53;0.30;;;10.90;78.50;;;;;;4773751;30;20128;-77
2023/03/27 11:50:03;;;;;;;4.88;0.60;;;10.50;81.50;;;;;;4788914;30;20039;-77
2023/03/27 11:52:49;;;;;;;4.88;0.47;;;10.10;84.20;;;;;;4772971;30;20495;-75
2023/03/27 11:55:36;;;;;;;6.63;0.40;;;10.10;85.90;;;;;;4773498;30;20095;-79
2023/03/27 11:58:13;;;;;;;4.43;0.40;;;10.00;86.60;;;;;;4787983;30;20039;-78
2023/03/27 12:01:06;;;;;;;3.95;0.40;;;10.10;87.10;;;;;;4787980;30;20035;-78
2023/03/27 12:03:51;;;;;;;6.85;0.55;;;10.10;87.70;;;;;;4787303;30;20035;-78
2023/03/27 12:06:35;;;;;;;6.70;0.82;;;10.30;88.70;;;;;;4789022;30;20429;-77
2023/03/27 12:09:17;;;;;;;6.85;0.70;;;10.70;88.40;;;;;;4788448;30;20038;-76
2023/03/27 12:11:53;;;;;;;4.47;0.68;;;10.70;81.10;;;;;;4787438;30;20031;-80
2023/03/27 12:15:17;;;;;;;4.63;0.52;;;10.60;78.00;;;;;;4787248;30;20522;-79
2023/03/27 12:17:52;;;;;;;;;;;10.40;76.40;;;;;;4750575;30;20266;-78
2023/03/27 12:20:39;;;;;;;3.25;0.32;;;10.60;77.10;;;;;;4773103;30;20223;-77
2023/03/27 12:23:15;;;;;;;4.88;0.50;;;10.90;76.80;;;;;;4772066;30;20090;-77
2023/03/27 12:25:50;;;;;;;4.18;0.52;;;11.00;75.30;;;;;;4788555;30;20031;-77
2023/03/27 12:28:31;;;;;;;6.65;0.60;;;11.00;74.10;;;;;;4788699;30;20358;-77
2023/03/27 12:31:05;;;;;;;4.85;0.30;;;11.00;73.70;;;;;;4772673;30;20431;-77
2023/03/27 12:33:43;;;;;;;4.05;0.40;;;11.00;75.00;;;;;;4788684;30;20047;-76
2023/03/27 12:36:16;;;;;;;3.03;0.40;;;11.20;73.90;;;;;;4788584;30;20039;-78
2023/03/27 12:38:43;;;;;;;4.60;0.20;;;11.30;72.90;;;;;;4787709;30;20027;-77
2023/03/27 12:41:11;;;;;;;6.45;0.30;;;11.30;72.70;;;;;;4785982;30;20051;-78
2023/03/27 12:43:42;;;;;;;3.10;0.40;;;11.30;72.50;;;;;;4770556;30;20134;-77
2023/03/27 12:46:23;;;;;;;3.03;0.22;;;11.40;71.90;;;;;;4785043;30;20381;-79
2023/03/27 12:48:53;;;;;;;6.15;0.47;;;11.50;72.10;;;;;;4771555;30;20115;-77
2023/03/27 12:51:41;;;;;;;3.88;0.50;;;11.40;71.40;;;;;;4768986;30;20028;-77
2023/03/27 12:54:12;;;;;;;4.15;0.40;;;11.50;72.10;;;;;;4766322;30;20048;-76
2023/03/27 12:56:38;;;;;;;5.38;0.30;;;11.70;72.90;;;;;;4768581;30;20046;-77
2023/03/27 12:59:35;;;;;;;4.15;0.50;;;11.80;70.50;;;;;;4768716;30;20110;-80
2023/03/27 13:02:03;;;;;;;2.92;0.63;;;11.90;70.00;;;;;;4765846;30;20044;-81
2023/03/27 13:04:43;;;;;;;4.53;0.32;;;11.90;70.90;;;;;;4770127;30;20047;-80
2023/03/27 13:07:27;;;;;;;3.72;0.47;;;12.00;72.30;;;;;;4769329;30;20130;-81
2023/03/27 13:10:02;;;;;;;5.32;0.40;;;12.10;72.10;;;;;;4770853;30;20107;-81
2023/03/27 13:12:59;;;;;;;1.48;0.30;;;11.80;70.90;;;;;;4769462;30;20036;-82
2023/03/27 13:15:41;;;;;;;3.05;0.28;;;11.60;72.50;;;;;;4770173;30;20039;-82
2023/03/27 13:18:22;;;;;;;5.13;0.50;;;11.30;73.70;;;;;;4770090;30;20152;-81
2023/03/27 13:20:55;;;;;;;5.53;0.30;;;11.00;75.70;;;;;;4784244;30;20089;-82